Time;durP1;ratioP1;P1;durP2;ratioP2;P2;SDS_P1;SDS_P2;PMS_P1;PMS_P2;Temp;Humidity;BMP_temperature;BMP_pressure;BME280_temperature;BME280_humidity;BME280_pressure;Samples;Min_cycle;Max_cycle;Signal;HPM_P1;HPM_P2
2022/09/27 00:01:36;;;;;;;4.97;4.57;;;16.90;99.90;;;17.31;71.58;94046.31;5025292;28;20453;-57
2022/09/27 00:04:04;;;;;;;5.43;4.83;;;16.90;99.90;;;17.28;71.71;94044.88;5024625;28;20507;-56
2022/09/27 00:06:32;;;;;;;5.37;4.87;;;16.90;99.90;;;17.24;72.88;94042.81;5026345;28;20963;-56
2022/09/27 00:08:59;;;;;;;7.40;5.50;;;16.90;99.90;;;17.19;72.44;94054.88;5026359;28;20551;-55
2022/09/27 00:11:28;;;;;;;5.30;4.90;;;16.80;99.90;;;17.19;73.11;94065.50;5023486;28;20453;-55
2022/09/27 00:13:56;;;;;;;7.33;5.00;;;16.80;99.90;;;17.22;74.13;94072.25;5025611;28;20559;-55
2022/09/27 00:16:23;;;;;;;5.33;4.77;;;16.80;99.90;;;17.20;73.53;94064.50;5025253;28;20453;-56
2022/09/27 00:18:51;;;;;;;7.67;5.60;;;16.80;99.90;;;17.21;72.74;94075.94;5020564;28;20460;-55
2022/09/27 00:21:19;;;;;;;7.17;5.63;;;16.80;99.90;;;17.22;72.63;94082.09;5024552;28;20457;-56
2022/09/27 00:23:47;;;;;;;8.60;5.10;;;16.90;99.90;;;17.24;73.05;94072.88;5026228;28;20445;-56
2022/09/27 00:26:14;;;;;;;5.10;4.60;;;16.90;99.90;;;17.25;73.20;94073.72;5022822;28;20556;-57
2022/09/27 00:28:42;;;;;;;5.07;4.73;;;16.80;99.90;;;17.26;72.64;94070.84;5026346;28;20453;-56
2022/09/27 00:31:20;;;;;;;5.90;5.30;;;16.90;99.90;;;17.28;73.20;94075.97;5027104;28;20453;-56
2022/09/27 00:33:48;;;;;;;5.50;4.80;;;16.90;99.90;;;17.30;73.03;94071.25;5023957;28;20934;-56
2022/09/27 00:36:16;;;;;;;12.07;5.47;;;16.90;99.90;;;17.31;72.55;94075.56;5025958;28;20480;-56
2022/09/27 00:38:45;;;;;;;5.73;5.30;;;16.90;99.90;;;17.27;72.48;94064.50;5020351;28;20965;-55
2022/09/27 00:41:15;;;;;;;5.83;5.13;;;16.90;99.90;;;17.26;72.46;94056.72;5024035;28;20460;-56
2022/09/27 00:43:49;;;;;;;5.90;4.90;;;16.90;99.90;;;17.22;72.86;94044.88;5025631;28;20981;-57
2022/09/27 00:46:22;;;;;;;6.40;4.63;;;16.90;99.90;;;17.19;72.77;94030.94;5025380;28;20444;-56
2022/09/27 00:48:50;;;;;;;8.40;6.00;;;16.80;99.90;;;17.16;73.46;94034.00;5025882;28;20452;-56
2022/09/27 00:51:18;;;;;;;5.40;4.87;;;16.80;99.90;;;17.14;73.51;94027.28;5026369;28;20817;-55
2022/09/27 00:53:50;;;;;;;5.40;4.90;;;16.80;99.90;;;17.09;73.47;94022.56;5025886;28;20492;-57
2022/09/27 00:56:19;;;;;;;6.90;5.40;;;16.70;99.90;;;17.05;73.35;94008.03;5026080;28;20511;-57
2022/09/27 00:58:50;;;;;;;5.20;4.80;;;16.70;99.90;;;16.99;73.66;94024.78;5025880;28;20467;-54
2022/09/27 01:01:17;;;;;;;5.73;5.13;;;16.70;99.90;;;16.95;74.63;94008.44;5026379;28;20563;-56
2022/09/27 01:03:46;;;;;;;5.40;5.00;;;16.60;99.90;;;16.94;75.14;94003.31;5025508;28;20459;-56
2022/09/27 01:06:13;;;;;;;5.20;4.80;;;16.60;99.90;;;16.94;74.38;94005.97;5026192;28;20456;-57
2022/09/27 01:08:41;;;;;;;9.53;3.43;;;16.60;99.90;;;16.97;74.73;94010.88;5025898;28;20448;-55
2022/09/27 01:11:18;;;;;;;5.43;4.93;;;16.60;99.90;;;17.00;75.38;94010.50;5025325;28;20457;-58
2022/09/27 01:13:56;;;;;;;5.80;4.80;;;16.60;99.90;;;17.03;75.08;94012.75;5025168;28;20487;-55
2022/09/27 01:16:29;;;;;;;5.80;5.00;;;16.70;99.90;;;17.02;74.56;94022.56;5025896;28;20440;-57
2022/09/27 01:19:05;;;;;;;5.37;4.97;;;16.60;99.90;;;17.00;74.42;94000.66;5025666;28;20441;-58
2022/09/27 01:21:42;;;;;;;5.93;5.40;;;16.70;99.90;;;16.96;73.80;94022.53;5025775;28;20451;-55
2022/09/27 01:24:53;;;;;;;5.17;4.70;;;16.60;99.90;;;16.89;74.61;94021.72;5021839;28;20468;-56
2022/09/27 01:28:10;;;;;;;5.83;5.33;;;16.60;99.90;;;16.83;75.41;94028.59;5020610;28;20519;-58
2022/09/27 01:30:44;;;;;;;7.67;5.23;;;16.50;99.90;;;16.81;74.78;94018.16;5008554;28;20499;-55
2022/09/27 01:33:43;;;;;;;8.33;5.63;;;16.50;99.90;;;16.81;74.38;94018.16;5022255;28;20484;-55
2022/09/27 01:36:19;;;;;;;5.77;5.23;;;16.50;99.90;;;16.76;74.87;94010.00;5021010;28;20456;-56
2022/09/27 01:38:58;;;;;;;8.10;7.37;;;16.40;99.90;;;16.74;74.51;94022.63;5024374;28;20908;-56
2022/09/27 01:41:30;;;;;;;15.33;10.43;;;16.40;99.90;;;16.70;74.90;94010.78;5023261;28;20495;-55
2022/09/27 01:44:01;;;;;;;11.40;6.30;;;16.30;99.90;;;16.68;75.33;94004.81;5024989;28;20883;-56
2022/09/27 01:46:33;;;;;;;5.80;5.20;;;16.30;99.90;;;16.66;74.76;94015.66;5024170;28;20456;-54
2022/09/27 01:49:02;;;;;;;5.73;5.23;;;16.30;99.90;;;16.61;75.03;94009.31;5023483;28;20484;-56
2022/09/27 01:51:32;;;;;;;7.70;5.77;;;16.30;99.90;;;16.59;75.91;94006.03;5023932;28;20487;-53
2022/09/27 01:54:02;;;;;;;7.27;5.87;;;16.30;99.90;;;16.57;75.72;94008.06;5020607;28;20961;-56
2022/09/27 01:56:33;;;;;;;6.10;5.50;;;16.20;99.90;;;16.55;75.69;94013.56;5023582;28;20514;-56
2022/09/27 01:59:05;;;;;;;6.57;5.97;;;16.20;99.90;;;16.56;75.31;94001.09;5025367;28;21176;-56
2022/09/27 02:01:34;;;;;;;7.03;6.43;;;16.20;99.90;;;16.54;75.37;94006.63;5022123;28;20519;-57
2022/09/27 02:04:01;;;;;;;10.40;7.37;;;16.20;99.90;;;16.54;76.50;93996.00;5023753;28;20492;-56
2022/09/27 02:06:33;;;;;;;8.17;6.50;;;16.20;99.90;;;16.55;76.21;93992.34;5024060;28;20475;-54
2022/09/27 02:09:03;;;;;;;7.70;6.33;;;16.20;99.90;;;16.55;76.40;94002.16;5023393;28;20903;-57
2022/09/27 02:11:30;;;;;;;7.77;7.07;;;16.20;99.90;;;16.56;76.33;93982.53;5020761;28;20472;-58
2022/09/27 02:14:00;;;;;;;5.90;5.40;;;16.20;99.90;;;16.55;76.21;94007.44;5024621;28;20500;-56
2022/09/27 02:16:33;;;;;;;6.60;5.90;;;16.20;99.90;;;16.48;76.08;93956.97;5020806;28;20456;-56
2022/09/27 02:19:14;;;;;;;8.53;6.17;;;16.20;99.90;;;16.45;76.48;93950.25;5024423;28;20865;-56
2022/09/27 02:21:53;;;;;;;4.13;3.77;;;16.10;99.90;;;16.44;76.28;93935.31;5024077;28;20457;-56
2022/09/27 02:24:24;;;;;;;6.93;5.73;;;16.10;99.90;;;16.43;76.94;93931.03;5021678;28;20504;-55
2022/09/27 02:26:57;;;;;;;5.63;5.20;;;16.10;99.90;;;16.43;76.46;93933.69;5023788;28;20452;-55
2022/09/27 02:29:26;;;;;;;5.83;5.20;;;16.10;99.90;;;16.43;76.30;93920.41;5023730;28;20476;-55
2022/09/27 02:31:55;;;;;;;14.20;5.77;;;16.10;99.90;;;16.40;77.05;93923.47;5023823;28;20456;-55
2022/09/27 02:34:24;;;;;;;6.80;5.73;;;16.10;99.90;;;16.37;76.92;93931.81;5022872;28;20503;-56
2022/09/27 02:36:52;;;;;;;6.50;5.90;;;16.00;99.90;;;16.35;77.69;93943.66;5026454;28;20468;-55
2022/09/27 02:39:19;;;;;;;7.10;6.50;;;16.00;99.90;;;16.34;77.35;93947.31;5027877;28;20550;-56
2022/09/27 02:41:47;;;;;;;6.70;6.10;;;16.00;99.90;;;16.35;77.28;93949.78;5023644;28;20453;-56
2022/09/27 02:44:14;;;;;;;6.67;6.07;;;16.00;99.90;;;16.35;77.28;93957.75;5027855;28;20851;-56
2022/09/27 02:47:18;;;;;;;9.70;7.50;;;16.00;99.90;;;16.37;77.98;93970.81;5026979;28;20460;-55
2022/09/27 02:50:00;;;;;;;9.23;6.87;;;16.00;99.90;;;16.40;78.21;93957.16;5022009;28;20888;-55
2022/09/27 02:52:34;;;;;;;7.67;6.00;;;16.00;99.90;;;16.42;78.54;93942.69;5021931;28;20542;-54
2022/09/27 02:55:09;;;;;;;7.60;6.80;;;16.10;99.90;;;16.42;77.67;93955.94;5026977;28;20507;-55
2022/09/27 02:57:41;;;;;;;7.33;6.17;;;16.10;99.90;;;16.42;77.42;93957.75;5026797;28;20445;-54
2022/09/27 03:00:10;;;;;;;10.77;6.20;;;16.10;99.90;;;16.42;77.82;93950.63;5028063;28;20472;-56
2022/09/27 03:02:47;;;;;;;7.50;6.70;;;16.10;99.90;;;16.44;77.89;93931.88;5028046;28;20453;-55
2022/09/27 03:05:18;;;;;;;7.07;6.27;;;16.10;99.90;;;16.45;77.72;93944.94;5027616;28;20487;-55
2022/09/27 03:07:46;;;;;;;7.30;6.50;;;16.10;99.90;;;16.44;78.03;93921.25;5025256;28;20543;-55
2022/09/27 03:10:17;;;;;;;9.43;6.80;;;16.10;99.90;;;16.44;77.71;93919.41;5027917;28;20469;-57
2022/09/27 03:12:45;;;;;;;8.63;7.17;;;16.10;99.90;;;16.44;77.64;93905.31;5027039;28;20472;-56
2022/09/27 03:15:12;;;;;;;8.20;6.50;;;16.10;99.90;;;16.44;78.07;93894.72;5026751;28;21017;-56
2022/09/27 03:17:41;;;;;;;8.33;7.20;;;16.10;99.90;;;16.43;77.95;93904.47;5025991;28;20969;-56
2022/09/27 03:20:09;;;;;;;9.30;6.87;;;16.10;99.90;;;16.41;78.28;93895.91;5027508;28;20989;-54
2022/09/27 03:22:37;;;;;;;8.43;7.20;;;16.10;99.90;;;16.40;79.04;93894.25;5027992;28;20457;-56
2022/09/27 03:25:05;;;;;;;7.27;6.67;;;16.10;99.90;;;16.42;78.91;93889.59;5027543;28;20474;-54
2022/09/27 03:27:32;;;;;;;9.23;8.20;;;16.10;99.90;;;16.43;79.23;93877.94;5027535;28;20464;-56
2022/09/27 03:30:00;;;;;;;8.80;7.67;;;16.10;99.90;;;16.49;79.03;93892.25;5027501;28;20585;-56
2022/09/27 03:32:27;;;;;;;9.27;8.37;;;16.10;99.90;;;16.53;79.36;93892.66;5027146;28;20495;-54
2022/09/27 03:34:56;;;;;;;12.70;9.47;;;16.20;99.90;;;16.57;78.62;93899.22;5025194;28;20500;-57
2022/09/27 03:37:23;;;;;;;10.00;9.10;;;16.20;99.90;;;16.58;78.72;93893.72;5026181;28;20467;-57
2022/09/27 03:39:50;;;;;;;9.10;8.30;;;16.20;99.90;;;16.60;79.05;93901.47;5024237;28;20472;-55
2022/09/27 03:42:18;;;;;;;9.63;8.67;;;16.20;99.90;;;16.63;79.31;93885.94;5025317;28;20879;-54
2022/09/27 03:44:45;;;;;;;9.30;7.90;;;16.30;99.90;;;16.69;79.54;93892.31;5026588;28;20485;-56
2022/09/27 03:47:12;;;;;;;11.90;10.70;;;16.30;99.90;;;16.72;78.50;93883.94;5026427;28;20550;-55
2022/09/27 03:49:40;;;;;;;9.77;8.77;;;16.40;99.90;;;16.73;78.49;93874.97;5027341;28;20480;-56
2022/09/27 03:52:08;;;;;;;11.90;9.90;;;16.40;99.90;;;16.74;78.47;93899.66;5024714;28;20463;-56
2022/09/27 03:54:36;;;;;;;12.33;8.20;;;16.40;99.90;;;16.73;78.56;93892.72;5027364;28;20612;-54
2022/09/27 03:57:04;;;;;;;9.90;8.87;;;16.40;99.90;;;16.72;78.51;93899.88;5027163;28;20453;-56
2022/09/27 03:59:31;;;;;;;12.47;8.67;;;16.40;99.90;;;16.71;78.59;93887.59;5023463;28;20496;-57
2022/09/27 04:01:59;;;;;;;9.33;8.43;;;16.40;99.90;;;16.74;78.73;93899.66;5028079;28;20530;-57
2022/09/27 04:04:26;;;;;;;10.10;8.20;;;16.40;99.90;;;16.77;78.97;93886.78;5025642;28;20480;-55
2022/09/27 04:06:54;;;;;;;10.77;7.70;;;16.40;99.90;;;16.80;79.04;93882.94;5026166;28;20451;-57
2022/09/27 04:09:22;;;;;;;10.40;7.53;;;16.40;99.90;;;16.82;78.57;93894.16;5025779;28;20495;-56
2022/09/27 04:11:50;;;;;;;8.93;7.50;;;16.50;99.90;;;16.83;78.94;93888.63;5027307;28;20449;-57
2022/09/27 04:14:17;;;;;;;7.83;7.13;;;16.50;99.90;;;16.86;79.10;93882.16;5026514;28;21012;-57
2022/09/27 04:16:45;;;;;;;11.57;9.00;;;16.50;99.90;;;16.88;78.46;93874.78;5023722;28;20445;-55
2022/09/27 04:19:12;;;;;;;9.53;8.63;;;16.50;99.90;;;16.90;78.28;93878.06;5026613;28;21039;-57
2022/09/27 04:21:40;;;;;;;8.90;8.10;;;16.60;99.90;;;16.91;78.76;93870.91;5026793;28;20471;-55
2022/09/27 04:24:07;;;;;;;10.03;8.90;;;16.60;99.90;;;16.92;78.76;93875.22;5026337;28;20976;-54
2022/09/27 04:26:36;;;;;;;10.60;9.60;;;16.60;99.90;;;16.93;78.41;93885.63;5026303;28;20461;-54
2022/09/27 04:29:03;;;;;;;9.77;8.80;;;16.60;99.90;;;16.97;78.43;93872.75;5025908;28;21016;-57
2022/09/27 04:31:31;;;;;;;10.70;9.70;;;16.60;99.90;;;16.98;78.67;93879.72;5026696;28;20453;-53
2022/09/27 04:33:58;;;;;;;13.17;9.67;;;16.60;99.90;;;16.98;78.74;93887.69;5025794;28;20496;-55
2022/09/27 04:36:27;;;;;;;11.63;10.43;;;16.60;99.90;;;16.98;78.67;93895.66;5025741;28;20871;-55
2022/09/27 04:38:55;;;;;;;13.67;11.70;;;16.60;99.90;;;17.00;78.81;93877.66;5025591;28;20449;-56
2022/09/27 04:41:23;;;;;;;9.93;8.20;;;16.60;99.90;;;17.01;78.43;93877.47;5025879;28;20457;-57
2022/09/27 04:43:53;;;;;;;11.00;9.87;;;16.70;99.90;;;17.04;78.06;93889.53;5025353;28;21011;-56
2022/09/27 04:46:20;;;;;;;14.10;9.63;;;16.70;99.90;;;17.02;78.76;93887.06;5023807;28;20526;-55
2022/09/27 04:48:48;;;;;;;11.90;9.13;;;16.70;99.90;;;17.03;78.74;93888.69;5025300;28;20464;-54
2022/09/27 04:51:16;;;;;;;11.87;8.90;;;16.70;99.90;;;17.05;79.17;93893.78;5025278;28;20457;-54
2022/09/27 04:53:43;;;;;;;8.80;7.80;;;16.70;99.90;;;17.02;78.56;93897.69;5025472;28;20473;-56
2022/09/27 04:56:11;;;;;;;12.40;9.17;;;16.70;99.90;;;17.01;78.83;93889.94;5025518;28;20449;-56
2022/09/27 04:58:38;;;;;;;9.80;8.50;;;16.70;99.90;;;17.02;78.78;93892.38;5025127;28;20493;-56
2022/09/27 05:01:08;;;;;;;9.87;8.87;;;16.70;99.90;;;17.02;78.46;93888.88;5025237;28;20468;-55
2022/09/27 05:03:35;;;;;;;8.97;7.10;;;16.70;99.90;;;17.01;78.14;93874.00;5024929;28;20827;-56
2022/09/27 05:06:03;;;;;;;11.77;7.70;;;16.60;99.90;;;16.99;78.50;93878.66;5025409;28;20998;-55
2022/09/27 05:08:30;;;;;;;8.00;7.20;;;16.60;99.90;;;16.97;78.55;93872.75;5025449;28;20457;-56
2022/09/27 05:10:57;;;;;;;10.10;8.20;;;16.60;99.90;;;16.98;78.39;93872.56;5025358;28;20557;-56
2022/09/27 05:13:25;;;;;;;11.17;7.47;;;16.60;99.90;;;16.99;78.33;93860.06;5024902;28;20941;-55
2022/09/27 05:15:52;;;;;;;8.70;6.93;;;16.60;99.90;;;17.01;78.63;93866.03;5024570;28;20496;-56
2022/09/27 05:18:21;;;;;;;8.23;7.03;;;16.60;99.90;;;17.01;78.17;93858.06;5025305;28;20457;-57
2022/09/27 05:20:49;;;;;;;8.07;7.27;;;16.60;99.90;;;16.99;78.61;93863.56;5025094;28;20530;-56
2022/09/27 05:23:16;;;;;;;7.87;7.03;;;16.70;99.90;;;17.00;78.83;93848.44;5025743;28;20536;-56
2022/09/27 05:25:44;;;;;;;9.63;6.80;;;16.60;99.90;;;17.03;78.88;93848.03;5025003;28;20484;-56
2022/09/27 05:28:11;;;;;;;9.07;6.97;;;16.70;99.90;;;17.03;79.25;93837.41;5025313;28;20861;-55
2022/09/27 05:30:38;;;;;;;13.40;8.17;;;16.70;99.90;;;17.03;78.48;93834.75;5021611;28;20469;-57
2022/09/27 05:33:06;;;;;;;14.23;8.30;;;16.70;99.90;;;17.02;78.13;93838.41;5023851;28;20818;-55
2022/09/27 05:35:35;;;;;;;12.97;7.70;;;16.70;99.90;;;17.04;78.03;93836.41;5024864;28;20503;-55
2022/09/27 05:38:03;;;;;;;9.93;8.57;;;16.70;99.90;;;17.07;78.59;93835.16;5024540;28;20463;-57
2022/09/27 05:40:30;;;;;;;9.70;7.37;;;16.70;99.90;;;17.09;78.00;93843.75;5025672;28;20476;-57
2022/09/27 05:42:58;;;;;;;9.87;8.87;;;16.70;99.90;;;17.11;78.59;93854.97;5025111;28;21015;-56
2022/09/27 05:45:25;;;;;;;11.30;7.93;;;16.80;99.90;;;17.14;78.73;93863.34;5021337;28;20468;-56
2022/09/27 05:47:56;;;;;;;10.57;9.03;;;16.80;99.90;;;17.17;78.49;93854.97;5025384;28;20548;-56
2022/09/27 05:50:24;;;;;;;10.53;8.03;;;16.80;99.90;;;17.20;77.80;93857.22;5026994;28;21064;-56
2022/09/27 05:52:53;;;;;;;11.10;7.77;;;16.80;99.90;;;17.20;78.16;93862.53;5022053;28;20467;-54
2022/09/27 05:55:21;;;;;;;10.70;8.50;;;16.90;99.90;;;17.20;77.84;93867.84;5025033;28;20519;-54
2022/09/27 05:58:06;;;;;;;11.43;8.00;;;16.90;99.90;;;17.19;77.61;93874.16;5024802;28;20467;-57
2022/09/27 06:00:35;;;;;;;14.93;9.30;;;16.90;99.90;;;17.19;77.56;93860.88;5023591;28;20484;-54
2022/09/27 06:03:04;;;;;;;13.23;8.37;;;16.80;99.90;;;17.18;77.80;93853.94;5024078;28;20453;-56
2022/09/27 06:05:34;;;;;;;13.73;9.70;;;16.80;99.90;;;17.18;77.74;93867.25;5024859;28;20563;-55
2022/09/27 06:08:05;;;;;;;17.60;8.37;;;16.80;99.90;;;17.19;77.09;93876.81;5024451;28;20901;-56
2022/09/27 06:10:32;;;;;;;9.30;8.50;;;16.90;99.90;;;17.18;77.36;93874.38;5026369;28;20464;-56
2022/09/27 06:13:01;;;;;;;12.73;7.70;;;16.80;99.90;;;17.19;77.56;93876.03;5028466;28;20448;-55
2022/09/27 06:15:28;;;;;;;9.10;8.20;;;16.80;99.90;;;17.19;77.87;93884.00;5028132;28;21045;-56
2022/09/27 06:17:56;;;;;;;10.43;8.60;;;16.80;99.90;;;17.20;77.29;93883.78;5028795;28;20455;-56
2022/09/27 06:20:23;;;;;;;8.93;8.03;;;16.80;99.90;;;17.22;77.70;93875.59;5028714;28;20546;-56
2022/09/27 06:22:52;;;;;;;11.20;8.30;;;16.90;99.90;;;17.22;77.07;93864.97;5028387;28;20481;-56
2022/09/27 06:25:21;;;;;;;17.20;9.03;;;16.90;99.90;;;17.25;77.31;93866.41;5028360;28;20465;-56
2022/09/27 06:27:49;;;;;;;9.10;8.03;;;16.90;99.90;;;17.27;78.07;93867.03;5028329;28;20953;-56
2022/09/27 06:30:16;;;;;;;9.67;8.73;;;16.90;99.90;;;17.31;77.73;93862.94;5028127;28;20476;-58
2022/09/27 06:32:43;;;;;;;10.63;8.80;;;17.00;99.90;;;17.33;77.19;93861.69;5027311;28;20456;-56
2022/09/27 06:35:11;;;;;;;19.57;9.77;;;16.90;99.90;;;17.34;77.62;93859.88;5028459;28;20496;-56
2022/09/27 06:37:38;;;;;;;15.27;9.33;;;17.00;99.90;;;17.33;77.34;93842.28;5028374;28;20452;-56
2022/09/27 06:40:08;;;;;;;11.10;8.60;;;17.00;99.90;;;17.32;76.94;93856.56;5028268;28;20472;-56
2022/09/27 06:42:37;;;;;;;15.63;9.77;;;17.00;99.90;;;17.28;77.29;93858.84;5028727;28;20445;-56
2022/09/27 06:45:06;;;;;;;11.23;9.27;;;17.00;99.90;;;17.25;77.24;93869.06;5028136;28;20476;-56
2022/09/27 06:47:36;;;;;;;10.57;9.50;;;16.90;99.90;;;17.19;77.55;93863.53;5028672;28;20453;-56
2022/09/27 06:50:05;;;;;;;10.83;9.37;;;16.90;99.90;;;17.13;77.02;93855.59;5028466;28;21041;-56
2022/09/27 06:52:32;;;;;;;11.00;9.57;;;16.80;99.90;;;17.07;77.58;93846.59;5024763;28;20520;-58
2022/09/27 06:55:00;;;;;;;11.30;8.97;;;16.70;99.90;;;17.02;77.82;93838.41;5025844;28;20515;-56
2022/09/27 07:00:26;;;;;;;13.63;9.73;;;16.70;99.90;;;17.03;78.87;93864.78;5026833;28;20484;-55
2022/09/27 07:02:54;;;;;;;12.07;9.90;;;16.70;99.90;;;17.08;78.83;93869.47;5025878;28;20488;-56
2022/09/27 07:05:22;;;;;;;13.20;10.93;;;16.70;99.90;;;17.12;79.43;93870.72;5027709;28;20554;-55
2022/09/27 07:07:52;;;;;;;10.23;9.10;;;16.70;99.90;;;17.14;78.75;93873.97;5027849;28;20532;-55
2022/09/27 07:10:19;;;;;;;17.07;11.07;;;16.80;99.90;;;17.16;78.76;93871.91;5027508;28;20493;-58
2022/09/27 07:12:47;;;;;;;19.17;10.50;;;16.80;99.90;;;17.17;78.56;93868.25;5027676;28;20449;-56
2022/09/27 07:15:16;;;;;;;12.77;11.47;;;16.80;99.90;;;17.19;79.06;93891.97;5027408;28;20492;-57
2022/09/27 07:17:43;;;;;;;16.53;12.67;;;16.80;99.90;;;17.20;79.82;93896.25;5026256;28;20790;-57
2022/09/27 07:20:11;;;;;;;15.00;12.00;;;16.90;99.90;;;17.22;79.52;93902.19;5027326;28;21012;-57
2022/09/27 07:22:42;;;;;;;18.70;12.30;;;16.90;99.90;;;17.22;79.03;93896.06;5027134;28;20499;-54
2022/09/27 07:25:10;;;;;;;14.97;12.63;;;16.90;99.90;;;17.24;79.10;93899.31;5027662;28;20838;-56
2022/09/27 07:27:40;;;;;;;14.57;11.50;;;16.90;99.90;;;17.25;79.70;93909.75;5027031;28;20894;-55
2022/09/27 07:30:09;;;;;;;14.20;10.40;;;16.90;99.90;;;17.25;78.81;93907.09;5027265;28;20468;-54
2022/09/27 07:32:37;;;;;;;11.70;10.50;;;16.90;99.90;;;17.27;79.25;93894.41;5025733;28;20498;-57
2022/09/27 07:35:06;;;;;;;13.93;11.57;;;16.90;99.90;;;17.29;78.30;93902.16;5023686;28;20623;-55
2022/09/27 07:37:34;;;;;;;13.90;12.33;;;16.90;99.90;;;17.25;78.85;93895.66;5026734;28;20460;-57
2022/09/27 07:40:03;;;;;;;18.93;12.57;;;16.90;99.90;;;17.26;78.61;93878.66;5026513;28;20817;-55
2022/09/27 07:42:31;;;;;;;13.60;12.30;;;16.90;99.90;;;17.28;78.51;93885.41;5023438;28;20445;-56
2022/09/27 07:44:58;;;;;;;13.80;11.50;;;16.90;99.90;;;17.31;79.09;93881.53;5027092;28;20464;-55
2022/09/27 07:47:26;;;;;;;11.43;10.33;;;17.00;99.90;;;17.33;78.56;93877.63;5027000;28;20461;-55
2022/09/27 07:49:55;;;;;;;14.97;10.97;;;17.00;99.90;;;17.35;78.53;93883.59;5025183;28;20473;-56
2022/09/27 07:52:22;;;;;;;16.03;12.23;;;17.00;99.90;;;17.35;78.54;93874.78;5026589;28;20913;-57
2022/09/27 07:54:50;;;;;;;12.60;11.30;;;17.00;99.90;;;17.36;78.73;93873.75;5027123;28;20587;-57
2022/09/27 07:57:17;;;;;;;16.57;12.47;;;17.00;99.90;;;17.36;78.27;93887.06;5019024;28;20553;-56
2022/09/27 07:59:44;;;;;;;23.17;14.17;;;17.00;99.90;;;17.36;78.96;93885.19;5026406;28;20484;-55
2022/09/27 08:02:14;;;;;;;18.77;13.30;;;17.00;99.90;;;17.39;79.32;93894.59;5025153;28;20492;-55
2022/09/27 08:04:42;;;;;;;15.40;12.73;;;17.00;99.90;;;17.42;79.85;93901.38;5022924;28;20476;-56
2022/09/27 08:07:11;;;;;;;15.30;12.13;;;17.10;99.90;;;17.42;79.05;93909.34;5026309;28;20453;-54
2022/09/27 08:09:38;;;;;;;19.97;13.37;;;17.10;99.90;;;17.44;79.25;93923.22;5026643;28;20500;-55
2022/09/27 08:12:06;;;;;;;26.30;16.17;;;17.10;99.90;;;17.45;79.22;93912.41;5022510;28;20456;-57
2022/09/27 08:14:34;;;;;;;15.37;11.37;;;17.10;99.90;;;17.48;79.83;93889.91;5026516;28;20479;-56
2022/09/27 08:17:01;;;;;;;18.53;12.77;;;17.10;99.90;;;17.50;79.09;93888.66;5026072;28;20448;-56
2022/09/27 08:19:28;;;;;;;15.93;11.37;;;17.10;99.90;;;17.50;79.61;93875.38;5026245;28;20479;-57
2022/09/27 08:21:56;;;;;;;20.27;12.50;;;17.20;99.90;;;17.51;79.77;93877.00;5026141;28;20449;-57
2022/09/27 08:24:25;;;;;;;21.00;11.40;;;17.20;99.90;;;17.53;79.15;93871.50;5026572;28;20473;-56
2022/09/27 08:26:52;;;;;;;17.83;12.50;;;17.20;99.90;;;17.53;80.01;93863.50;5023210;28;20540;-59
2022/09/27 08:29:19;;;;;;;16.90;12.60;;;17.20;99.90;;;17.56;79.60;93861.25;5025789;28;20472;-56
2022/09/27 08:31:47;;;;;;;11.43;10.13;;;17.20;99.90;;;17.62;80.18;93856.13;5024654;28;20467;-54
2022/09/27 08:34:14;;;;;;;10.40;9.30;;;17.20;99.90;;;17.64;80.17;93830.94;5025157;28;20487;-56
2022/09/27 08:36:43;;;;;;;10.67;9.50;;;17.30;99.90;;;17.69;79.50;93830.31;5025829;28;20512;-56
2022/09/27 08:39:11;;;;;;;19.37;11.00;;;17.30;99.90;;;17.75;80.14;93842.78;5026195;28;20465;-59
2022/09/27 08:41:42;;;;;;;12.63;10.47;;;17.40;99.90;;;17.84;80.52;93838.88;5025763;28;20449;-55
2022/09/27 08:44:16;;;;;;;10.97;10.00;;;17.40;99.90;;;17.94;80.32;93834.97;5026349;28;20496;-56
2022/09/27 08:46:53;;;;;;;16.40;10.60;;;17.50;99.90;;;18.05;79.73;93842.31;5026243;28;20468;-55
2022/09/27 08:49:24;;;;;;;12.87;11.20;;;17.60;99.90;;;18.20;80.03;93842.88;5025421;28;20472;-55
2022/09/27 08:51:52;;;;;;;12.87;11.47;;;17.80;99.90;;;18.34;79.76;93854.25;5025871;28;20452;-55
2022/09/27 08:54:22;;;;;;;12.47;11.10;;;17.90;99.90;;;18.42;78.78;93863.84;5025891;28;20523;-57
2022/09/27 08:56:51;;;;;;;12.83;11.30;;;18.00;99.90;;;18.50;78.68;93852.09;5025842;28;20500;-55
2022/09/27 08:59:20;;;;;;;12.10;9.67;;;18.10;99.90;;;18.54;78.66;93846.13;5025497;28;20484;-57
2022/09/27 09:01:48;;;;;;;12.47;10.90;;;18.20;99.90;;;18.62;79.01;93848.56;5024502;28;20536;-56
2022/09/27 09:04:19;;;;;;;10.77;8.93;;;18.20;99.90;;;18.72;78.88;93852.59;5024772;28;20474;-57
2022/09/27 09:06:51;;;;;;;12.80;8.83;;;18.40;99.90;;;18.81;78.45;93841.47;5025639;28;20858;-56
2022/09/27 09:09:26;;;;;;;10.20;9.17;;;18.40;99.90;;;18.88;77.86;93845.97;5025142;28;20555;-57
2022/09/27 09:15:06;;;;;;;11.77;9.20;;;18.50;99.90;;;19.06;78.26;93855.88;5023678;28;20582;-56
2022/09/27 09:17:58;;;;;;;10.30;9.33;;;18.60;99.90;;;19.19;78.27;93852.28;5024892;28;20448;-56
2022/09/27 09:20:36;;;;;;;10.30;9.20;;;18.80;99.90;;;19.30;77.16;93836.41;5025183;28;20579;-56
2022/09/27 09:23:38;;;;;;;9.93;8.47;;;18.90;99.90;;;19.42;77.42;93835.66;5026119;28;20448;-57
2022/09/27 09:26:09;;;;;;;11.60;9.30;;;19.00;99.90;;;19.47;77.40;93836.66;5006545;28;20453;-57
2022/09/27 09:28:52;;;;;;;12.77;10.20;;;19.10;99.90;;;19.48;76.04;93826.78;5025206;28;20583;-59
2022/09/27 09:31:24;;;;;;;10.10;9.10;;;19.10;99.90;;;19.49;76.88;93821.22;5023344;28;20532;-56
2022/09/27 09:33:54;;;;;;;11.27;10.17;;;19.10;99.90;;;19.53;76.90;93825.09;5023302;28;20449;-56
2022/09/27 09:36:27;;;;;;;10.37;8.77;;;19.10;99.90;;;19.61;76.97;93826.66;5025311;28;20484;-55
2022/09/27 09:38:56;;;;;;;11.53;8.73;;;19.20;99.90;;;19.68;76.44;93816.72;5025190;28;20472;-57
2022/09/27 09:41:27;;;;;;;12.93;10.30;;;19.30;99.90;;;19.73;76.16;93821.38;5021854;28;20463;-56
2022/09/27 09:43:58;;;;;;;9.93;9.00;;;19.30;99.90;;;19.79;76.04;93825.06;5025246;28;20830;-54
2022/09/27 09:46:28;;;;;;;8.63;7.90;;;19.40;99.90;;;19.81;75.13;93825.63;5028535;28;20456;-54
2022/09/27 09:48:57;;;;;;;11.40;8.70;;;19.40;99.90;;;19.80;75.83;93813.31;5029802;28;20449;-56
2022/09/27 09:51:28;;;;;;;14.77;8.90;;;19.40;99.90;;;19.82;75.57;93822.75;5029141;28;20464;-54
2022/09/27 09:53:57;;;;;;;10.70;9.60;;;19.50;99.90;;;19.83;75.73;93820.88;5029380;28;20460;-56
2022/09/27 09:56:26;;;;;;;17.30;9.10;;;19.50;99.90;;;19.87;75.85;93822.88;5029375;28;20546;-56
2022/09/27 09:58:57;;;;;;;16.67;8.20;;;19.50;99.90;;;19.91;75.41;93817.09;5028864;28;20556;-56
2022/09/27 10:01:27;;;;;;;12.80;9.20;;;19.50;99.90;;;19.90;75.13;93821.63;5029648;28;20487;-55
2022/09/27 10:03:55;;;;;;;17.00;8.70;;;19.50;99.90;;;19.84;74.86;93827.88;5029025;28;20488;-58
2022/09/27 10:06:23;;;;;;;13.53;8.63;;;19.50;99.90;;;19.80;75.23;93829.34;5026068;28;20678;-57
2022/09/27 10:08:53;;;;;;;10.77;8.00;;;19.40;99.90;;;19.80;74.83;93821.34;5029038;28;20459;-56
2022/09/27 10:11:23;;;;;;;13.70;8.77;;;19.40;99.90;;;19.82;74.72;93825.41;5029005;28;20451;-56
2022/09/27 10:13:50;;;;;;;8.33;7.20;;;19.40;99.90;;;19.88;74.65;93818.38;5028590;28;20456;-56
2022/09/27 10:16:20;;;;;;;11.20;7.63;;;19.50;99.90;;;19.93;74.80;93807.84;5028761;28;20511;-55
2022/09/27 10:18:48;;;;;;;8.80;8.00;;;19.50;99.90;;;19.99;75.04;93809.63;5028543;28;20445;-56
2022/09/27 10:21:19;;;;;;;7.43;6.83;;;19.60;99.90;;;20.05;74.34;93806.06;5028239;28;20464;-56
2022/09/27 10:24:07;;;;;;;8.53;7.73;;;19.60;99.90;;;20.20;74.46;93786.16;5028583;28;20452;-56
2022/09/27 10:26:34;;;;;;;9.80;7.43;;;19.80;99.90;;;20.36;74.17;93787.38;5027375;28;20456;-57
2022/09/27 10:29:22;;;;;;;8.27;7.43;;;19.90;99.90;;;20.48;74.07;93790.06;5028535;28;20474;-55
2022/09/27 10:31:50;;;;;;;8.03;7.00;;;20.00;99.90;;;20.55;73.83;93785.47;5024787;28;20476;-56
2022/09/27 10:34:21;;;;;;;7.50;6.80;;;20.10;99.90;;;20.58;73.61;93785.81;5027398;28;20472;-56